createdAt,value
2023-05-13T00:00:11.158Z,5.63
2023-05-13T00:02:34.075Z,5.37
2023-05-13T00:04:56.476Z,5.33
2023-05-13T00:07:18.853Z,5.93
2023-05-13T00:09:41.455Z,5.70
2023-05-13T00:12:03.801Z,6.07
2023-05-13T00:14:29.151Z,5.37
2023-05-13T00:16:51.670Z,6.10
2023-05-13T00:19:14.321Z,6.47
2023-05-13T00:21:37.228Z,6.30
2023-05-13T00:24:08.427Z,6.13
2023-05-13T00:26:30.761Z,6.23
2023-05-13T00:28:53.293Z,5.90
2023-05-13T00:31:15.945Z,6.63
2023-05-13T00:33:38.299Z,6.20
2023-05-13T00:36:00.593Z,6.27
2023-05-13T00:38:22.915Z,6.30
2023-05-13T00:40:45.940Z,6.67
2023-05-13T00:43:08.416Z,5.97
2023-05-13T00:45:30.976Z,6.60
2023-05-13T00:47:53.270Z,6.37
2023-05-13T00:50:15.876Z,6.57
2023-05-13T00:52:39.524Z,6.70
2023-05-13T00:55:02.100Z,6.23
2023-05-13T00:57:24.413Z,6.67
2023-05-13T00:59:46.747Z,6.50
2023-05-13T01:02:28.104Z,6.50
2023-05-13T01:05:22.703Z,6.50
2023-05-13T01:07:48.437Z,6.63
2023-05-13T01:10:24.710Z,6.37
2023-05-13T01:12:47.200Z,6.23
2023-05-13T01:15:10.737Z,6.73
2023-05-13T01:17:35.614Z,6.57
2023-05-13T01:19:59.000Z,6.70
2023-05-13T01:22:21.266Z,6.73
2023-05-13T01:24:43.790Z,6.60
2023-05-13T01:27:06.926Z,7.03
2023-05-13T01:29:29.410Z,6.60
2023-05-13T01:31:52.782Z,7.03
2023-05-13T01:34:18.447Z,7.00
2023-05-13T01:36:40.706Z,6.87
2023-05-13T01:39:03.917Z,7.13
2023-05-13T01:41:27.233Z,6.63
2023-05-13T01:43:49.583Z,7.17
2023-05-13T01:46:15.101Z,7.50
2023-05-13T01:48:37.378Z,7.47
2023-05-13T01:50:59.665Z,7.60
2023-05-13T01:53:21.891Z,7.10
2023-05-13T01:55:47.462Z,7.13
2023-05-13T01:58:09.756Z,7.90
2023-05-13T02:00:31.990Z,7.30
2023-05-13T02:02:54.482Z,6.70
2023-05-13T02:05:17.078Z,7.97
2023-05-13T02:07:39.654Z,7.03
2023-05-13T02:10:01.960Z,7.03
2023-05-13T02:12:24.262Z,7.80
2023-05-13T02:14:46.535Z,7.90
2023-05-13T02:17:08.837Z,8.47
2023-05-13T02:19:31.086Z,7.60
2023-05-13T02:21:53.470Z,8.17
2023-05-13T02:24:15.731Z,7.57
2023-05-13T02:26:38.206Z,8.23
2023-05-13T02:29:00.913Z,8.97
2023-05-13T02:31:23.599Z,7.17
2023-05-13T02:33:45.871Z,7.27
2023-05-13T02:36:08.710Z,7.70
2023-05-13T02:38:32.415Z,6.23
2023-05-13T02:40:54.690Z,7.40
2023-05-13T02:43:17.639Z,7.50
2023-05-13T02:45:47.307Z,8.90
2023-05-13T02:48:11.310Z,7.80
2023-05-13T02:50:33.858Z,7.80
2023-05-13T02:52:56.128Z,8.43
2023-05-13T02:55:19.534Z,7.93
2023-05-13T02:57:43.264Z,8.70
2023-05-13T03:00:06.445Z,9.70
2023-05-13T03:02:29.398Z,8.90
2023-05-13T03:04:51.737Z,8.17
2023-05-13T03:07:14.039Z,8.40
2023-05-13T03:09:39.108Z,8.07
2023-05-13T03:12:02.561Z,8.23
2023-05-13T03:14:24.770Z,8.17
2023-05-13T03:16:46.977Z,8.30
2023-05-13T03:19:10.456Z,7.60
2023-05-13T03:21:32.702Z,8.20
2023-05-13T03:23:55.265Z,8.00
2023-05-13T03:26:17.522Z,8.13
2023-05-13T03:28:40.310Z,8.70
2023-05-13T03:31:02.782Z,8.30
2023-05-13T03:33:29.733Z,8.83
2023-05-13T03:35:52.118Z,7.80
2023-05-13T03:38:20.001Z,8.70
2023-05-13T03:40:45.067Z,8.17
2023-05-13T03:43:07.558Z,8.73
2023-05-13T03:45:31.622Z,8.10
2023-05-13T03:47:58.621Z,8.33
2023-05-13T03:50:21.202Z,7.73
2023-05-13T03:52:45.531Z,7.53
2023-05-13T03:55:09.636Z,7.80
2023-05-13T03:57:32.146Z,9.30
2023-05-13T03:59:54.455Z,8.50
2023-05-13T04:02:18.629Z,8.10
2023-05-13T04:04:41.074Z,8.70
2023-05-13T04:07:03.409Z,8.97
2023-05-13T04:09:26.136Z,8.40
2023-05-13T04:11:48.399Z,8.37
2023-05-13T04:14:11.786Z,8.03
2023-05-13T04:16:34.028Z,7.90
2023-05-13T04:18:56.388Z,8.13
2023-05-13T04:21:18.623Z,8.00
2023-05-13T04:23:40.884Z,8.50
2023-05-13T04:26:03.151Z,7.33
2023-05-13T04:28:25.570Z,8.23
2023-05-13T04:30:48.579Z,7.93
2023-05-13T04:33:11.029Z,7.83
2023-05-13T04:35:35.923Z,8.07
2023-05-13T04:37:59.682Z,7.03
2023-05-13T04:40:22.308Z,7.70
2023-05-13T04:42:45.975Z,8.27
2023-05-13T04:45:08.725Z,8.30
2023-05-13T04:47:35.125Z,7.30
2023-05-13T04:49:57.505Z,8.10
2023-05-13T04:52:20.455Z,7.03
2023-05-13T04:54:43.024Z,7.37
2023-05-13T04:57:06.686Z,7.13
2023-05-13T04:59:29.107Z,7.40
2023-05-13T05:01:51.965Z,6.73
2023-05-13T05:04:14.445Z,6.40
2023-05-13T05:06:37.693Z,6.47
2023-05-13T05:09:00.657Z,6.30
2023-05-13T05:11:23.086Z,6.30
2023-05-13T05:13:46.575Z,6.07
2023-05-13T05:16:11.304Z,5.90
2023-05-13T05:18:33.765Z,6.93
2023-05-13T05:20:56.682Z,7.03
2023-05-13T05:23:19.617Z,6.50
2023-05-13T05:25:42.173Z,6.83
2023-05-13T05:28:05.495Z,6.93
2023-05-13T05:30:28.898Z,7.10
2023-05-13T05:32:56.598Z,7.03
2023-05-13T05:35:19.945Z,6.80
2023-05-13T05:37:42.720Z,6.47
2023-05-13T05:40:05.467Z,6.30
2023-05-13T05:42:29.327Z,5.87
2023-05-13T05:45:16.525Z,5.90
2023-05-13T05:47:39.050Z,5.50
2023-05-13T05:50:32.712Z,4.77
2023-05-13T05:52:57.463Z,5.20
2023-05-13T05:55:19.963Z,4.77
2023-05-13T05:57:55.674Z,4.20
2023-05-13T06:00:19.245Z,3.90
2023-05-13T06:02:41.753Z,3.17
2023-05-13T06:05:05.133Z,2.53
2023-05-13T06:07:27.495Z,2.60
2023-05-13T06:09:49.947Z,2.15
2023-05-13T06:12:12.217Z,2.63
2023-05-13T06:14:34.447Z,2.53
2023-05-13T06:16:56.716Z,2.78
2023-05-13T06:19:19.288Z,2.78
2023-05-13T06:21:43.119Z,2.78
2023-05-13T06:24:05.670Z,2.42
2023-05-13T06:26:30.452Z,2.90
2023-05-13T06:28:56.409Z,2.78
2023-05-13T06:31:18.865Z,2.85
2023-05-13T06:33:42.232Z,2.50
2023-05-13T06:36:04.711Z,2.75
2023-05-13T06:38:30.345Z,2.45
2023-05-13T06:40:54.836Z,2.30
2023-05-13T06:43:22.728Z,2.25
2023-05-13T06:45:51.543Z,2.38
2023-05-13T06:48:14.705Z,2.17
2023-05-13T06:50:36.972Z,2.10
2023-05-13T06:52:59.256Z,2.25
2023-05-13T06:55:21.765Z,2.20
2023-05-13T06:57:46.729Z,2.40
2023-05-13T07:00:09.172Z,2.08
2023-05-13T07:02:31.452Z,2.20
2023-05-13T07:04:54.019Z,2.10
2023-05-13T07:07:16.233Z,2.42
2023-05-13T07:09:38.456Z,2.03
2023-05-13T07:12:00.895Z,2.35
2023-05-13T07:14:25.117Z,1.88
2023-05-13T07:16:47.409Z,2.20
2023-05-13T07:19:09.848Z,2.30
2023-05-13T07:21:32.186Z,2.33
2023-05-13T07:23:54.410Z,1.95
2023-05-13T07:26:16.843Z,2.40
2023-05-13T07:28:39.151Z,2.00
2023-05-13T07:31:01.574Z,2.20
2023-05-13T07:33:24.375Z,2.30
2023-05-13T07:35:46.614Z,2.10
2023-05-13T07:38:11.332Z,2.08
2023-05-13T07:40:34.079Z,2.35
2023-05-13T07:42:56.271Z,2.10
2023-05-13T07:45:18.516Z,1.98
2023-05-13T07:47:42.209Z,1.77
2023-05-13T07:50:06.920Z,2.22
2023-05-13T07:52:29.212Z,1.92
2023-05-13T07:54:51.477Z,2.20
2023-05-13T07:57:13.710Z,2.30
2023-05-13T07:59:35.992Z,1.67
2023-05-13T08:01:58.218Z,1.85
2023-05-13T08:04:20.697Z,2.08
2023-05-13T08:06:43.043Z,1.90
2023-05-13T08:09:05.325Z,1.80
2023-05-13T08:11:27.600Z,2.13
2023-05-13T08:13:49.808Z,2.05
2023-05-13T08:16:12.136Z,1.75
2023-05-13T08:18:34.415Z,1.80
2023-05-13T08:20:56.728Z,1.80
2023-05-13T08:23:18.949Z,1.25
2023-05-13T08:25:44.140Z,2.10
2023-05-13T08:28:06.633Z,1.60
2023-05-13T08:30:28.901Z,1.83
2023-05-13T08:32:51.381Z,1.58
2023-05-13T08:35:13.811Z,1.63
2023-05-13T08:37:36.438Z,1.25
2023-05-13T08:40:01.432Z,1.70
2023-05-13T08:42:25.269Z,1.23
2023-05-13T08:44:47.835Z,1.50
2023-05-13T08:47:22.436Z,1.45
2023-05-13T08:49:56.882Z,1.83
2023-05-13T08:56:11.090Z,1.52
2023-05-13T08:58:40.472Z,1.77
2023-05-13T09:01:03.711Z,1.65
2023-05-13T09:04:04.534Z,1.70
2023-05-13T09:06:27.156Z,1.45
2023-05-13T09:08:50.194Z,1.65
2023-05-13T09:12:01.332Z,1.52
2023-05-13T09:18:39.290Z,1.65
2023-05-13T09:24:57.768Z,1.70
2023-05-13T09:27:24.238Z,1.70
2023-05-13T09:29:59.968Z,1.70
2023-05-13T09:32:22.548Z,1.90
2023-05-13T09:34:49.274Z,1.52
2023-05-13T09:37:18.833Z,1.75
2023-05-13T09:39:42.423Z,1.55
2023-05-13T09:42:05.720Z,1.77
2023-05-13T09:44:28.147Z,1.80
2023-05-13T09:46:54.644Z,1.77
2023-05-13T09:49:17.237Z,1.95
2023-05-13T09:55:11.902Z,2.00
2023-05-13T09:57:42.500Z,1.85
2023-05-13T10:00:06.256Z,1.92
2023-05-13T10:02:36.438Z,2.20
2023-05-13T10:04:59.098Z,1.70
2023-05-13T10:07:24.615Z,1.80
2023-05-13T10:09:47.484Z,1.60
2023-05-13T10:12:11.422Z,1.67
2023-05-13T10:14:33.744Z,1.60
2023-05-13T10:17:00.678Z,1.75
2023-05-13T10:19:24.414Z,2.13
2023-05-13T10:21:46.770Z,1.90
2023-05-13T10:24:09.940Z,2.20
2023-05-13T10:26:33.036Z,1.88
2023-05-13T10:28:55.563Z,1.77
2023-05-13T10:31:18.387Z,1.75
2023-05-13T10:33:41.224Z,1.80
2023-05-13T10:36:12.700Z,1.52
2023-05-13T10:38:48.864Z,1.58
2023-05-13T10:41:40.782Z,1.50
2023-05-13T10:44:04.450Z,1.25
2023-05-13T10:46:27.495Z,1.80
2023-05-13T10:48:56.804Z,1.95
2023-05-13T10:51:23.287Z,1.48
2023-05-13T10:53:52.987Z,1.80
2023-05-13T10:56:15.572Z,1.58
2023-05-13T10:58:38.450Z,1.50
2023-05-13T11:01:20.579Z,1.75
2023-05-13T11:03:43.158Z,1.45
2023-05-13T11:06:16.133Z,1.88
2023-05-13T11:08:42.326Z,1.67
2023-05-13T11:11:20.317Z,1.75
2023-05-13T11:13:42.523Z,1.70
2023-05-13T11:16:07.914Z,1.73
2023-05-13T11:18:34.419Z,1.48
2023-05-13T11:20:56.822Z,1.60
2023-05-13T11:23:19.862Z,1.55
2023-05-13T11:25:44.237Z,1.50
2023-05-13T11:28:06.512Z,1.67
2023-05-13T11:30:29.025Z,1.55
2023-05-13T11:32:51.513Z,1.80
2023-05-13T11:35:14.895Z,1.67
2023-05-13T11:37:43.513Z,1.70
2023-05-13T11:40:09.322Z,1.88
2023-05-13T11:42:31.656Z,1.75
2023-05-13T11:44:54.134Z,2.00
2023-05-13T11:47:26.802Z,1.90
2023-05-13T11:49:52.432Z,1.80
2023-05-13T11:52:15.851Z,1.70
2023-05-13T11:54:51.583Z,1.70
2023-05-13T11:57:27.622Z,1.88
2023-05-13T11:59:56.831Z,1.67
2023-05-13T12:02:23.414Z,2.03
2023-05-13T12:04:45.851Z,1.90
2023-05-13T12:07:33.628Z,1.90
2023-05-13T12:09:59.614Z,1.65
2023-05-13T12:12:22.785Z,1.70
2023-05-13T12:14:52.489Z,1.55
2023-05-13T12:17:15.118Z,1.88
2023-05-13T12:19:37.462Z,1.60
2023-05-13T12:22:00.054Z,1.92
2023-05-13T12:24:22.758Z,1.73
2023-05-13T12:26:45.104Z,1.80
2023-05-13T12:29:07.374Z,1.98
2023-05-13T12:31:29.668Z,1.67
2023-05-13T12:33:52.058Z,1.90
2023-05-13T12:36:23.463Z,1.80
2023-05-13T12:39:00.180Z,1.52
2023-05-13T12:41:33.434Z,1.35
2023-05-13T12:44:02.834Z,1.65
2023-05-13T12:46:25.595Z,1.52
2023-05-13T12:48:47.877Z,1.65
2023-05-13T12:51:10.121Z,1.63
2023-05-13T12:53:32.387Z,1.83
2023-05-13T12:55:56.799Z,2.20
2023-05-13T13:01:38.114Z,3.38
2023-05-13T13:04:35.410Z,2.40
2023-05-13T13:07:44.475Z,2.50
2023-05-13T13:10:44.972Z,2.97
2023-05-13T13:13:32.973Z,2.50
2023-05-13T13:16:07.913Z,2.20
2023-05-13T13:18:30.894Z,1.83
2023-05-13T13:21:05.363Z,1.85
2023-05-13T13:23:33.563Z,1.67
2023-05-13T13:25:58.404Z,1.10
2023-05-13T13:28:42.509Z,1.45
2023-05-13T13:31:05.361Z,1.38
2023-05-13T13:33:31.087Z,1.35
2023-05-13T13:35:53.706Z,1.33
2023-05-13T13:38:15.925Z,1.58
2023-05-13T13:40:38.163Z,1.30
2023-05-13T13:43:00.424Z,1.35
2023-05-13T13:48:31.580Z,1.80
2023-05-13T13:50:55.008Z,1.80
2023-05-13T13:53:17.376Z,1.60
2023-05-13T13:55:42.812Z,1.58
2023-05-13T13:58:05.132Z,1.90
2023-05-13T14:00:27.374Z,1.73
2023-05-13T14:02:49.897Z,1.90
2023-05-13T14:05:13.566Z,1.83
2023-05-13T14:07:36.838Z,1.73
2023-05-13T14:10:01.035Z,1.70
2023-05-13T14:12:24.025Z,1.27
2023-05-13T14:14:46.341Z,1.08
2023-05-13T14:24:23.609Z,0.90
2023-05-13T14:26:52.048Z,1.10
2023-05-13T14:29:14.708Z,1.10
2023-05-13T14:31:37.374Z,1.30
2023-05-13T14:34:26.862Z,1.38
2023-05-13T14:36:49.586Z,1.20
2023-05-13T14:39:15.020Z,1.05
2023-05-13T14:41:43.337Z,1.20
2023-05-13T14:44:06.004Z,1.35
2023-05-13T14:46:30.025Z,1.50
2023-05-13T14:49:17.861Z,1.27
2023-05-13T14:51:44.358Z,1.40
2023-05-13T14:54:07.274Z,1.40
2023-05-13T14:56:54.848Z,1.40
2023-05-13T14:59:17.784Z,1.75
2023-05-13T15:01:46.572Z,1.85
2023-05-13T15:04:36.655Z,1.67
2023-05-13T15:10:00.912Z,1.80
2023-05-13T15:12:30.600Z,1.92
2023-05-13T15:18:50.003Z,1.90
2023-05-13T15:21:41.822Z,1.70
2023-05-13T15:24:29.512Z,1.88
2023-05-13T15:26:54.447Z,1.52
2023-05-13T15:29:16.973Z,1.80
2023-05-13T15:31:39.494Z,2.00
2023-05-13T15:34:04.858Z,2.10
2023-05-13T15:36:53.074Z,1.40
2023-05-13T15:39:16.665Z,1.90
2023-05-13T15:41:39.570Z,2.08
2023-05-13T15:44:11.150Z,1.80
2023-05-13T15:46:33.861Z,1.73
2023-05-13T15:48:56.901Z,1.50
2023-05-13T15:51:19.673Z,1.70
2023-05-13T15:53:52.660Z,1.75
2023-05-13T15:56:16.291Z,1.80
2023-05-13T15:59:13.339Z,1.50
2023-05-13T16:01:46.807Z,1.75
2023-05-13T16:04:09.737Z,2.13
2023-05-13T16:06:32.189Z,1.70
2023-05-13T16:08:56.469Z,1.90
2023-05-13T16:19:09.703Z,1.45
2023-05-13T16:21:59.788Z,1.50
2023-05-13T16:24:42.708Z,1.60
2023-05-13T16:27:08.423Z,1.50
2023-05-13T16:37:19.660Z,1.70
2023-05-13T16:42:49.323Z,1.95
2023-05-13T16:45:38.889Z,1.55
2023-05-13T16:48:01.454Z,1.80
2023-05-13T16:50:24.468Z,1.98
2023-05-13T16:52:47.516Z,2.00
2023-05-13T16:55:10.154Z,1.48
2023-05-13T16:57:32.749Z,1.95
2023-05-13T16:59:55.219Z,1.88
2023-05-13T17:02:17.538Z,1.63
2023-05-13T17:04:40.000Z,2.00
2023-05-13T17:07:02.730Z,1.52
2023-05-13T17:09:51.362Z,1.70
2023-05-13T17:12:17.394Z,1.23
2023-05-13T17:14:48.459Z,1.83
2023-05-13T17:17:11.515Z,1.60
2023-05-13T17:19:34.205Z,1.35
2023-05-13T17:21:57.125Z,1.50
2023-05-13T17:24:22.329Z,1.30
2023-05-13T17:26:44.807Z,1.30
2023-05-13T17:29:07.423Z,1.33
2023-05-13T17:31:29.963Z,1.38
2023-05-13T17:33:56.237Z,1.80
2023-05-13T17:36:19.009Z,1.80
2023-05-13T17:38:44.509Z,1.55
2023-05-13T17:41:07.000Z,1.88
2023-05-13T17:43:29.804Z,1.60
2023-05-13T17:45:55.506Z,1.80
2023-05-13T17:49:01.516Z,1.80
2023-05-13T17:51:46.831Z,1.38
2023-05-13T17:54:11.462Z,1.60
2023-05-13T17:59:48.846Z,1.58
2023-05-13T18:02:24.686Z,1.63
2023-05-13T18:04:49.740Z,1.77
2023-05-13T18:07:12.320Z,1.60
2023-05-13T18:09:34.708Z,2.33
2023-05-13T18:12:06.431Z,2.00
2023-05-13T18:14:32.314Z,2.33
2023-05-13T18:16:57.987Z,2.15
2023-05-13T18:19:20.538Z,2.28
2023-05-13T18:21:43.125Z,2.10
2023-05-13T18:24:12.863Z,2.22
2023-05-13T18:26:35.386Z,2.33
2023-05-13T18:28:57.905Z,2.33
2023-05-13T18:31:26.548Z,2.60
2023-05-13T18:34:10.357Z,2.33
2023-05-13T18:36:32.809Z,2.25
2023-05-13T18:38:55.696Z,2.55
2023-05-13T18:41:18.060Z,2.50
2023-05-13T18:43:43.193Z,2.28
2023-05-13T18:46:05.768Z,3.35
2023-05-13T18:48:28.467Z,2.67
2023-05-13T18:50:51.364Z,2.63
2023-05-13T18:53:13.636Z,2.70
2023-05-13T18:55:36.735Z,2.70
2023-05-13T18:57:59.126Z,2.70
2023-05-13T19:00:21.928Z,2.88
2023-05-13T19:02:44.865Z,2.92
2023-05-13T19:05:28.034Z,3.23
2023-05-13T19:07:50.775Z,3.10
2023-05-13T19:10:16.319Z,2.97
2023-05-13T19:12:38.611Z,3.23
2023-05-13T19:15:00.864Z,3.03
2023-05-13T19:17:23.296Z,3.37
2023-05-13T19:19:45.585Z,3.30
2023-05-13T19:22:08.042Z,3.60
2023-05-13T19:24:30.410Z,3.70
2023-05-13T19:26:52.854Z,3.70
2023-05-13T19:29:15.123Z,3.23
2023-05-13T19:31:37.696Z,3.90
2023-05-13T19:34:01.267Z,3.20
2023-05-13T19:36:26.085Z,3.20
2023-05-13T19:38:48.428Z,3.57
2023-05-13T19:41:10.629Z,3.73
2023-05-13T19:43:32.983Z,3.67
2023-05-13T19:45:56.479Z,3.40
2023-05-13T19:48:18.723Z,3.33
2023-05-13T19:50:41.589Z,4.23
2023-05-13T19:53:04.200Z,4.47
2023-05-13T19:55:26.846Z,4.03
2023-05-13T19:57:49.177Z,4.20
2023-05-13T20:00:12.616Z,3.93
2023-05-13T20:02:34.973Z,4.10
2023-05-13T20:04:57.334Z,4.00
2023-05-13T20:07:19.576Z,4.37
2023-05-13T20:09:41.857Z,4.30
2023-05-13T20:12:07.468Z,4.23
2023-05-13T20:14:42.302Z,3.97
2023-05-13T20:17:04.671Z,3.67
2023-05-13T20:19:27.180Z,4.37
2023-05-13T20:21:49.643Z,4.10
2023-05-13T20:24:12.103Z,4.50
2023-05-13T20:26:35.690Z,4.20
2023-05-13T20:28:58.662Z,4.40
2023-05-13T20:31:21.035Z,4.67
2023-05-13T20:33:43.374Z,4.37
2023-05-13T20:36:06.771Z,4.83
2023-05-13T20:38:28.963Z,4.87
2023-05-13T20:40:51.312Z,4.10
2023-05-13T20:43:13.728Z,4.60
2023-05-13T20:45:39.836Z,4.50
2023-05-13T20:48:02.095Z,4.40
2023-05-13T20:50:24.570Z,5.10
2023-05-13T20:52:47.084Z,4.90
2023-05-13T20:55:09.699Z,4.93
2023-05-13T20:57:34.670Z,4.43
2023-05-13T20:59:56.883Z,4.80
2023-05-13T21:02:19.365Z,4.57
2023-05-13T21:04:41.653Z,4.77
2023-05-13T21:07:04.988Z,4.87
2023-05-13T21:09:27.188Z,4.90
2023-05-13T21:11:49.402Z,4.70
2023-05-13T21:14:11.621Z,4.73
2023-05-13T21:16:35.923Z,4.47
2023-05-13T21:18:58.511Z,4.53
2023-05-13T21:21:20.890Z,4.57
2023-05-13T21:23:44.136Z,5.57
2023-05-13T21:26:07.073Z,5.80
2023-05-13T21:28:29.389Z,4.90
2023-05-13T21:30:51.831Z,4.70
2023-05-13T21:33:14.368Z,5.30
2023-05-13T21:35:36.995Z,5.60
2023-05-13T21:38:10.873Z,5.50
2023-05-13T21:40:34.597Z,5.57
2023-05-13T21:42:56.952Z,5.20
2023-05-13T21:45:19.253Z,5.10
2023-05-13T21:47:41.736Z,5.63
2023-05-13T21:50:04.188Z,5.97
2023-05-13T21:52:26.497Z,4.80
2023-05-13T21:54:48.765Z,5.30
2023-05-13T21:57:11.313Z,4.93
2023-05-13T21:59:33.850Z,4.77
2023-05-13T22:01:56.250Z,4.77
2023-05-13T22:04:18.763Z,4.53
2023-05-13T22:06:41.046Z,4.93
2023-05-13T22:09:03.323Z,4.77
2023-05-13T22:11:26.672Z,4.63
2023-05-13T22:13:48.910Z,4.73
2023-05-13T22:16:11.907Z,4.70
2023-05-13T22:18:34.641Z,4.57
2023-05-13T22:20:58.801Z,5.10
2023-05-13T22:23:21.195Z,5.10
2023-05-13T22:25:43.354Z,4.80
2023-05-13T22:28:06.219Z,5.47
2023-05-13T22:30:28.563Z,5.60
2023-05-13T22:32:51.163Z,5.53
2023-05-13T22:35:13.547Z,5.20
2023-05-13T22:37:35.796Z,5.70
2023-05-13T22:39:57.987Z,5.50
2023-05-13T22:42:20.266Z,5.33
2023-05-13T22:44:42.488Z,5.57
2023-05-13T22:47:04.811Z,5.10
2023-05-13T22:49:27.061Z,5.87
2023-05-13T22:51:49.848Z,5.10
2023-05-13T22:54:18.022Z,6.30
2023-05-13T22:56:40.336Z,5.40
2023-05-13T22:59:02.838Z,5.53
2023-05-13T23:01:25.155Z,6.10
2023-05-13T23:03:47.541Z,6.27
2023-05-13T23:06:11.084Z,5.63
2023-05-13T23:08:33.322Z,6.53
2023-05-13T23:10:55.580Z,5.57
2023-05-13T23:13:17.952Z,6.13
2023-05-13T23:15:40.421Z,6.13
2023-05-13T23:18:02.962Z,6.17
2023-05-13T23:20:25.260Z,6.60
2023-05-13T23:22:48.355Z,6.30
2023-05-13T23:25:10.888Z,6.67
2023-05-13T23:27:33.208Z,7.73
2023-05-13T23:29:55.389Z,6.70
2023-05-13T23:32:17.715Z,6.73
2023-05-13T23:34:39.947Z,6.30
2023-05-13T23:37:02.139Z,6.53
2023-05-13T23:39:24.453Z,5.83
2023-05-13T23:41:46.696Z,6.03
2023-05-13T23:44:08.931Z,6.20
2023-05-13T23:46:31.954Z,6.03
2023-05-13T23:48:54.234Z,5.23
2023-05-13T23:51:16.471Z,5.33
2023-05-13T23:53:38.680Z,5.70
2023-05-13T23:56:00.844Z,5.20
2023-05-13T23:58:23.085Z,5.20
